sensor_id;sensor_type;location;lat;lon;timestamp;temperature;humidity
4584;DHT22;2304;47.606;12.186;2024-03-08T00:00:15;4.90;66.20
4584;DHT22;2304;47.606;12.186;2024-03-08T00:05:18;4.80;66.10
4584;DHT22;2304;47.606;12.186;2024-03-08T00:10:20;4.70;66.10
4584;DHT22;2304;47.606;12.186;2024-03-08T00:15:24;4.70;66.20
4584;DHT22;2304;47.606;12.186;2024-03-08T00:20:26;4.70;66.30
4584;DHT22;2304;47.606;12.186;2024-03-08T00:25:28;4.70;66.20
4584;DHT22;2304;47.606;12.186;2024-03-08T00:30:31;4.60;66.40
4584;DHT22;2304;47.606;12.186;2024-03-08T00:35:37;4.60;66.10
4584;DHT22;2304;47.606;12.186;2024-03-08T00:40:39;4.60;65.90
4584;DHT22;2304;47.606;12.186;2024-03-08T00:45:42;4.60;66.00
4584;DHT22;2304;47.606;12.186;2024-03-08T00:50:44;4.60;66.50
4584;DHT22;2304;47.606;12.186;2024-03-08T00:55:47;4.50;67.00
4584;DHT22;2304;47.606;12.186;2024-03-08T01:00:51;4.50;66.60
4584;DHT22;2304;47.606;12.186;2024-03-08T01:05:52;4.50;67.10
4584;DHT22;2304;47.606;12.186;2024-03-08T01:11:04;4.50;66.70
4584;DHT22;2304;47.606;12.186;2024-03-08T01:16:07;4.50;66.80
4584;DHT22;2304;47.606;12.186;2024-03-08T01:21:10;4.30;67.20
4584;DHT22;2304;47.606;12.186;2024-03-08T01:26:12;4.30;67.00
4584;DHT22;2304;47.606;12.186;2024-03-08T01:31:17;4.30;66.70
4584;DHT22;2304;47.606;12.186;2024-03-08T01:36:18;4.30;66.70
4584;DHT22;2304;47.606;12.186;2024-03-08T01:41:20;4.20;67.10
4584;DHT22;2304;47.606;12.186;2024-03-08T01:46:39;4.20;67.30
4584;DHT22;2304;47.606;12.186;2024-03-08T01:51:41;4.20;67.20
4584;DHT22;2304;47.606;12.186;2024-03-08T02:02:43;4.10;70.00
4584;DHT22;2304;47.606;12.186;2024-03-08T02:07:45;4.00;68.70
4584;DHT22;2304;47.606;12.186;2024-03-08T02:12:47;4.10;68.60
4584;DHT22;2304;47.606;12.186;2024-03-08T02:17:51;4.00;67.90
4584;DHT22;2304;47.606;12.186;2024-03-08T02:22:55;4.00;67.80
4584;DHT22;2304;47.606;12.186;2024-03-08T02:27:57;4.00;67.50
4584;DHT22;2304;47.606;12.186;2024-03-08T02:32:58;4.00;67.60
4584;DHT22;2304;47.606;12.186;2024-03-08T02:38:02;3.90;67.60
4584;DHT22;2304;47.606;12.186;2024-03-08T02:43:04;3.90;67.40
4584;DHT22;2304;47.606;12.186;2024-03-08T02:48:07;3.90;67.90
4584;DHT22;2304;47.606;12.186;2024-03-08T02:53:10;3.70;69.50
4584;DHT22;2304;47.606;12.186;2024-03-08T02:58:12;3.70;69.40
4584;DHT22;2304;47.606;12.186;2024-03-08T03:03:15;3.70;70.50
4584;DHT22;2304;47.606;12.186;2024-03-08T03:08:18;3.70;70.80
4584;DHT22;2304;47.606;12.186;2024-03-08T03:13:20;3.60;70.00
4584;DHT22;2304;47.606;12.186;2024-03-08T03:18:22;3.60;69.90
4584;DHT22;2304;47.606;12.186;2024-03-08T03:23:25;3.60;72.20
4584;DHT22;2304;47.606;12.186;2024-03-08T03:28:27;3.60;72.40
4584;DHT22;2304;47.606;12.186;2024-03-08T03:33:29;3.60;72.70
4584;DHT22;2304;47.606;12.186;2024-03-08T03:38:36;3.60;73.30
4584;DHT22;2304;47.606;12.186;2024-03-08T03:43:38;3.60;73.30
4584;DHT22;2304;47.606;12.186;2024-03-08T03:48:40;3.50;73.30
4584;DHT22;2304;47.606;12.186;2024-03-08T03:53:45;3.50;74.00
4584;DHT22;2304;47.606;12.186;2024-03-08T03:58:47;3.40;74.50
4584;DHT22;2304;47.606;12.186;2024-03-08T04:03:50;3.40;74.70
4584;DHT22;2304;47.606;12.186;2024-03-08T04:08:53;3.40;74.70
4584;DHT22;2304;47.606;12.186;2024-03-08T04:13:55;3.30;74.60
4584;DHT22;2304;47.606;12.186;2024-03-08T04:18:57;3.40;75.80
4584;DHT22;2304;47.606;12.186;2024-03-08T04:24:01;3.20;76.70
4584;DHT22;2304;47.606;12.186;2024-03-08T04:29:03;3.20;76.60
4584;DHT22;2304;47.606;12.186;2024-03-08T04:34:04;3.20;76.20
4584;DHT22;2304;47.606;12.186;2024-03-08T04:39:08;3.20;76.50
4584;DHT22;2304;47.606;12.186;2024-03-08T04:44:14;3.20;77.30
4584;DHT22;2304;47.606;12.186;2024-03-08T04:49:16;3.20;77.20
4584;DHT22;2304;47.606;12.186;2024-03-08T04:54:19;3.20;76.40
4584;DHT22;2304;47.606;12.186;2024-03-08T04:59:21;3.30;75.60
4584;DHT22;2304;47.606;12.186;2024-03-08T05:04:24;3.30;75.00
4584;DHT22;2304;47.606;12.186;2024-03-08T05:09:27;3.20;75.20
4584;DHT22;2304;47.606;12.186;2024-03-08T05:14:32;3.10;76.00
4584;DHT22;2304;47.606;12.186;2024-03-08T05:19:36;3.10;76.10
4584;DHT22;2304;47.606;12.186;2024-03-08T05:24:39;3.10;76.20
4584;DHT22;2304;47.606;12.186;2024-03-08T05:29:41;3.10;76.90
4584;DHT22;2304;47.606;12.186;2024-03-08T05:34:43;3.00;78.40
4584;DHT22;2304;47.606;12.186;2024-03-08T05:39:47;3.00;77.50
4584;DHT22;2304;47.606;12.186;2024-03-08T05:44:49;3.00;77.20
4584;DHT22;2304;47.606;12.186;2024-03-08T05:49:51;3.00;76.60
4584;DHT22;2304;47.606;12.186;2024-03-08T05:54:55;2.90;76.90
4584;DHT22;2304;47.606;12.186;2024-03-08T05:59:57;2.90;77.10
4584;DHT22;2304;47.606;12.186;2024-03-08T06:04:59;2.90;77.50
4584;DHT22;2304;47.606;12.186;2024-03-08T06:10:04;2.90;78.10
4584;DHT22;2304;47.606;12.186;2024-03-08T06:15:08;2.80;77.90
4584;DHT22;2304;47.606;12.186;2024-03-08T06:20:11;2.90;78.40
4584;DHT22;2304;47.606;12.186;2024-03-08T06:25:14;2.80;78.10
4584;DHT22;2304;47.606;12.186;2024-03-08T06:30:17;2.80;78.00
4584;DHT22;2304;47.606;12.186;2024-03-08T06:35:21;2.90;77.80
4584;DHT22;2304;47.606;12.186;2024-03-08T06:40:25;3.00;77.90
4584;DHT22;2304;47.606;12.186;2024-03-08T06:45:27;3.00;78.10
4584;DHT22;2304;47.606;12.186;2024-03-08T06:50:29;2.90;77.60
4584;DHT22;2304;47.606;12.186;2024-03-08T06:55:34;3.00;77.40
4584;DHT22;2304;47.606;12.186;2024-03-08T07:00:35;3.30;77.40
4584;DHT22;2304;47.606;12.186;2024-03-08T07:05:37;3.10;76.60
4584;DHT22;2304;47.606;12.186;2024-03-08T07:10:49;3.20;76.70
4584;DHT22;2304;47.606;12.186;2024-03-08T07:15:51;3.20;76.60
4584;DHT22;2304;47.606;12.186;2024-03-08T07:20:53;3.30;77.20
4584;DHT22;2304;47.606;12.186;2024-03-08T07:25:56;3.30;77.60
4584;DHT22;2304;47.606;12.186;2024-03-08T07:30:59;3.20;77.50
4584;DHT22;2304;47.606;12.186;2024-03-08T07:36:17;3.20;78.00
4584;DHT22;2304;47.606;12.186;2024-03-08T07:41:20;3.20;78.60
4584;DHT22;2304;47.606;12.186;2024-03-08T07:46:23;3.60;78.30
4584;DHT22;2304;47.606;12.186;2024-03-08T07:51:24;4.00;76.90
4584;DHT22;2304;47.606;12.186;2024-03-08T07:56:28;4.30;74.60
4584;DHT22;2304;47.606;12.186;2024-03-08T08:01:30;4.50;72.80
4584;DHT22;2304;47.606;12.186;2024-03-08T08:06:32;4.80;71.60
4584;DHT22;2304;47.606;12.186;2024-03-08T08:11:35;5.00;69.80
4584;DHT22;2304;47.606;12.186;2024-03-08T08:16:37;5.40;69.80
4584;DHT22;2304;47.606;12.186;2024-03-08T08:21:50;5.70;68.20
4584;DHT22;2304;47.606;12.186;2024-03-08T08:26:53;5.80;67.50
4584;DHT22;2304;47.606;12.186;2024-03-08T08:31:57;6.20;65.80
4584;DHT22;2304;47.606;12.186;2024-03-08T08:36:59;6.30;64.70
4584;DHT22;2304;47.606;12.186;2024-03-08T08:42:03;6.50;64.00
4584;DHT22;2304;47.606;12.186;2024-03-08T08:47:06;6.70;62.50
4584;DHT22;2304;47.606;12.186;2024-03-08T08:52:08;7.00;60.90
4584;DHT22;2304;47.606;12.186;2024-03-08T08:57:19;7.30;60.00
4584;DHT22;2304;47.606;12.186;2024-03-08T09:02:21;7.40;60.40
4584;DHT22;2304;47.606;12.186;2024-03-08T09:07:23;7.60;58.90
4584;DHT22;2304;47.606;12.186;2024-03-08T09:12:26;7.90;58.80
4584;DHT22;2304;47.606;12.186;2024-03-08T09:17:28;8.00;56.40
4584;DHT22;2304;47.606;12.186;2024-03-08T09:22:30;8.00;56.00
4584;DHT22;2304;47.606;12.186;2024-03-08T09:27:34;8.30;55.80
4584;DHT22;2304;47.606;12.186;2024-03-08T09:32:36;8.60;54.90
4584;DHT22;2304;47.606;12.186;2024-03-08T09:37:38;8.50;54.40
4584;DHT22;2304;47.606;12.186;2024-03-08T09:42:42;8.70;54.10
4584;DHT22;2304;47.606;12.186;2024-03-08T09:47:44;8.90;53.50
4584;DHT22;2304;47.606;12.186;2024-03-08T09:52:48;9.00;52.60
4584;DHT22;2304;47.606;12.186;2024-03-08T09:57:54;9.20;53.10
4584;DHT22;2304;47.606;12.186;2024-03-08T10:03:10;9.30;52.70
4584;DHT22;2304;47.606;12.186;2024-03-08T10:08:18;9.50;52.90
4584;DHT22;2304;47.606;12.186;2024-03-08T10:13:22;10.00;51.40
4584;DHT22;2304;47.606;12.186;2024-03-08T10:18:24;10.00;51.50
4584;DHT22;2304;47.606;12.186;2024-03-08T10:23:26;10.20;50.10
4584;DHT22;2304;47.606;12.186;2024-03-08T10:28:29;10.30;49.10
4584;DHT22;2304;47.606;12.186;2024-03-08T10:33:32;10.70;49.50
4584;DHT22;2304;47.606;12.186;2024-03-08T10:38:36;11.00;48.40
4584;DHT22;2304;47.606;12.186;2024-03-08T10:44:08;11.30;48.90
4584;DHT22;2304;47.606;12.186;2024-03-08T10:49:16;11.50;47.90
4584;DHT22;2304;47.606;12.186;2024-03-08T10:54:19;11.60;47.80
4584;DHT22;2304;47.606;12.186;2024-03-08T10:59:24;11.80;47.10
4584;DHT22;2304;47.606;12.186;2024-03-08T11:04:27;11.90;46.50
4584;DHT22;2304;47.606;12.186;2024-03-08T11:09:30;12.10;46.40
4584;DHT22;2304;47.606;12.186;2024-03-08T11:14:53;12.40;46.20
4584;DHT22;2304;47.606;12.186;2024-03-08T11:19:56;12.60;45.60
4584;DHT22;2304;47.606;12.186;2024-03-08T11:25:02;12.80;44.70
4584;DHT22;2304;47.606;12.186;2024-03-08T11:30:11;13.00;44.30
4584;DHT22;2304;47.606;12.186;2024-03-08T11:35:18;13.30;46.60
4584;DHT22;2304;47.606;12.186;2024-03-08T11:40:21;13.70;46.80
4584;DHT22;2304;47.606;12.186;2024-03-08T11:45:24;14.00;47.20
4584;DHT22;2304;47.606;12.186;2024-03-08T11:50:26;14.30;45.80
4584;DHT22;2304;47.606;12.186;2024-03-08T11:55:28;14.40;44.80
4584;DHT22;2304;47.606;12.186;2024-03-08T12:00:32;14.60;43.10
4584;DHT22;2304;47.606;12.186;2024-03-08T12:05:38;14.70;43.20
4584;DHT22;2304;47.606;12.186;2024-03-08T12:10:40;15.00;42.90
4584;DHT22;2304;47.606;12.186;2024-03-08T12:15:45;15.10;42.90
4584;DHT22;2304;47.606;12.186;2024-03-08T12:20:47;15.30;43.90
4584;DHT22;2304;47.606;12.186;2024-03-08T12:25:50;15.50;42.50
4584;DHT22;2304;47.606;12.186;2024-03-08T12:30:53;15.60;39.60
4584;DHT22;2304;47.606;12.186;2024-03-08T12:35:57;15.60;40.70
4584;DHT22;2304;47.606;12.186;2024-03-08T12:40:59;15.70;40.50
4584;DHT22;2304;47.606;12.186;2024-03-08T12:46:03;15.80;40.00
4584;DHT22;2304;47.606;12.186;2024-03-08T12:51:06;15.70;39.80
4584;DHT22;2304;47.606;12.186;2024-03-08T12:56:08;15.50;38.20
4584;DHT22;2304;47.606;12.186;2024-03-08T13:01:19;15.60;40.00
4584;DHT22;2304;47.606;12.186;2024-03-08T13:06:21;15.50;38.20
4584;DHT22;2304;47.606;12.186;2024-03-08T13:11:25;15.70;39.50
4584;DHT22;2304;47.606;12.186;2024-03-08T13:16:29;16.00;39.60
4584;DHT22;2304;47.606;12.186;2024-03-08T13:21:31;16.30;40.30
4584;DHT22;2304;47.606;12.186;2024-03-08T13:26:33;16.30;39.70
4584;DHT22;2304;47.606;12.186;2024-03-08T13:31:36;16.50;39.40
4584;DHT22;2304;47.606;12.186;2024-03-08T13:36:49;16.60;39.80
4584;DHT22;2304;47.606;12.186;2024-03-08T13:41:51;16.60;40.20
4584;DHT22;2304;47.606;12.186;2024-03-08T13:46:55;16.50;39.90
4584;DHT22;2304;47.606;12.186;2024-03-08T13:51:58;16.60;41.60
4584;DHT22;2304;47.606;12.186;2024-03-08T13:57:00;16.70;41.50
4584;DHT22;2304;47.606;12.186;2024-03-08T14:02:06;16.60;40.50
4584;DHT22;2304;47.606;12.186;2024-03-08T14:07:13;16.50;41.60
4584;DHT22;2304;47.606;12.186;2024-03-08T14:12:19;16.40;41.30
4584;DHT22;2304;47.606;12.186;2024-03-08T14:17:23;16.30;42.00
4584;DHT22;2304;47.606;12.186;2024-03-08T14:22:27;16.20;42.40
4584;DHT22;2304;47.606;12.186;2024-03-08T14:27:32;16.00;41.80
4584;DHT22;2304;47.606;12.186;2024-03-08T14:32:35;15.90;42.50
4584;DHT22;2304;47.606;12.186;2024-03-08T14:37:39;15.70;42.10
4584;DHT22;2304;47.606;12.186;2024-03-08T14:42:41;15.70;43.00
4584;DHT22;2304;47.606;12.186;2024-03-08T14:47:52;15.70;43.20
4584;DHT22;2304;47.606;12.186;2024-03-08T14:52:55;15.60;42.90
4584;DHT22;2304;47.606;12.186;2024-03-08T14:57:57;15.50;43.50
4584;DHT22;2304;47.606;12.186;2024-03-08T15:03:00;15.50;43.90
4584;DHT22;2304;47.606;12.186;2024-03-08T15:08:06;15.40;43.40
4584;DHT22;2304;47.606;12.186;2024-03-08T15:13:10;15.10;44.00
4584;DHT22;2304;47.606;12.186;2024-03-08T15:18:24;14.90;44.40
4584;DHT22;2304;47.606;12.186;2024-03-08T15:23:31;14.70;44.80
4584;DHT22;2304;47.606;12.186;2024-03-08T15:28:33;14.60;44.50
4584;DHT22;2304;47.606;12.186;2024-03-08T15:33:40;14.50;45.00
4584;DHT22;2304;47.606;12.186;2024-03-08T15:38:45;14.20;45.40
4584;DHT22;2304;47.606;12.186;2024-03-08T15:43:47;14.00;45.90
4584;DHT22;2304;47.606;12.186;2024-03-08T15:48:51;13.80;46.70
4584;DHT22;2304;47.606;12.186;2024-03-08T15:53:53;13.60;47.30
4584;DHT22;2304;47.606;12.186;2024-03-08T15:58:56;13.40;47.60
4584;DHT22;2304;47.606;12.186;2024-03-08T16:03:59;13.30;47.90
4584;DHT22;2304;47.606;12.186;2024-03-08T16:09:01;13.10;48.30
4584;DHT22;2304;47.606;12.186;2024-03-08T16:14:04;12.90;48.70
4584;DHT22;2304;47.606;12.186;2024-03-08T16:19:07;12.80;49.00
4584;DHT22;2304;47.606;12.186;2024-03-08T16:24:09;12.70;49.30
4584;DHT22;2304;47.606;12.186;2024-03-08T16:29:11;12.50;49.50
4584;DHT22;2304;47.606;12.186;2024-03-08T16:34:17;12.40;50.20
4584;DHT22;2304;47.606;12.186;2024-03-08T16:39:20;12.30;50.50
4584;DHT22;2304;47.606;12.186;2024-03-08T16:44:24;12.20;50.80
4584;DHT22;2304;47.606;12.186;2024-03-08T16:49:28;12.00;50.80
4584;DHT22;2304;47.606;12.186;2024-03-08T16:54:30;11.80;51.30
4584;DHT22;2304;47.606;12.186;2024-03-08T16:59:33;11.70;51.50
4584;DHT22;2304;47.606;12.186;2024-03-08T17:04:37;11.60;51.70
4584;DHT22;2304;47.606;12.186;2024-03-08T17:09:39;11.50;51.80
4584;DHT22;2304;47.606;12.186;2024-03-08T17:14:42;11.50;51.90
4584;DHT22;2304;47.606;12.186;2024-03-08T17:19:45;11.40;52.10
4584;DHT22;2304;47.606;12.186;2024-03-08T17:24:47;11.30;52.30
4584;DHT22;2304;47.606;12.186;2024-03-08T17:29:51;11.20;52.70
4584;DHT22;2304;47.606;12.186;2024-03-08T17:34:56;11.20;53.00
4584;DHT22;2304;47.606;12.186;2024-03-08T17:39:58;11.10;53.40
4584;DHT22;2304;47.606;12.186;2024-03-08T17:45:00;11.00;53.50
4584;DHT22;2304;47.606;12.186;2024-03-08T17:50:04;10.90;53.60
4584;DHT22;2304;47.606;12.186;2024-03-08T17:55:11;10.80;54.00
4584;DHT22;2304;47.606;12.186;2024-03-08T18:00:16;10.60;54.70
4584;DHT22;2304;47.606;12.186;2024-03-08T18:05:28;10.40;55.60
4584;DHT22;2304;47.606;12.186;2024-03-08T18:10:33;10.20;55.90
4584;DHT22;2304;47.606;12.186;2024-03-08T18:15:35;10.10;56.10
4584;DHT22;2304;47.606;12.186;2024-03-08T18:20:39;10.10;56.20
4584;DHT22;2304;47.606;12.186;2024-03-08T18:25:46;10.10;56.30
4584;DHT22;2304;47.606;12.186;2024-03-08T18:30:48;9.90;56.70
4584;DHT22;2304;47.606;12.186;2024-03-08T18:35:53;9.80;56.90
4584;DHT22;2304;47.606;12.186;2024-03-08T18:40:55;9.80;57.30
4584;DHT22;2304;47.606;12.186;2024-03-08T18:45:58;9.60;57.60
4584;DHT22;2304;47.606;12.186;2024-03-08T18:51:01;9.50;57.30
4584;DHT22;2304;47.606;12.186;2024-03-08T18:56:03;9.40;57.30
4584;DHT22;2304;47.606;12.186;2024-03-08T19:01:07;9.40;57.40
4584;DHT22;2304;47.606;12.186;2024-03-08T19:06:10;9.20;58.40
4584;DHT22;2304;47.606;12.186;2024-03-08T19:11:12;9.10;58.30
4584;DHT22;2304;47.606;12.186;2024-03-08T19:16:14;9.00;58.00
4584;DHT22;2304;47.606;12.186;2024-03-08T19:21:19;9.00;58.20
4584;DHT22;2304;47.606;12.186;2024-03-08T19:26:21;8.90;58.30
4584;DHT22;2304;47.606;12.186;2024-03-08T19:31:23;8.80;58.10
4584;DHT22;2304;47.606;12.186;2024-03-08T19:36:26;8.60;59.50
4584;DHT22;2304;47.606;12.186;2024-03-08T19:41:28;8.60;58.80
4584;DHT22;2304;47.606;12.186;2024-03-08T19:46:31;8.50;58.80
4584;DHT22;2304;47.606;12.186;2024-03-08T19:51:42;8.50;58.80
4584;DHT22;2304;47.606;12.186;2024-03-08T19:56:46;8.40;58.60
4584;DHT22;2304;47.606;12.186;2024-03-08T20:01:48;8.40;58.70
4584;DHT22;2304;47.606;12.186;2024-03-08T20:06:53;8.30;58.80
4584;DHT22;2304;47.606;12.186;2024-03-08T20:11:55;8.30;58.70
4584;DHT22;2304;47.606;12.186;2024-03-08T20:16:57;8.10;58.70
4584;DHT22;2304;47.606;12.186;2024-03-08T20:22:02;8.00;58.90
4584;DHT22;2304;47.606;12.186;2024-03-08T20:27:03;8.00;60.00
4584;DHT22;2304;47.606;12.186;2024-03-08T20:32:05;7.80;59.80
4584;DHT22;2304;47.606;12.186;2024-03-08T20:37:09;7.80;60.00
4584;DHT22;2304;47.606;12.186;2024-03-08T20:42:11;7.80;59.80
4584;DHT22;2304;47.606;12.186;2024-03-08T20:47:13;7.70;60.10
4584;DHT22;2304;47.606;12.186;2024-03-08T20:52:18;7.60;60.50
4584;DHT22;2304;47.606;12.186;2024-03-08T20:57:20;7.60;60.50
4584;DHT22;2304;47.606;12.186;2024-03-08T21:02:22;7.50;61.20
4584;DHT22;2304;47.606;12.186;2024-03-08T21:07:25;7.40;61.90
4584;DHT22;2304;47.606;12.186;2024-03-08T21:12:27;7.30;61.30
4584;DHT22;2304;47.606;12.186;2024-03-08T21:17:29;7.30;61.10
4584;DHT22;2304;47.606;12.186;2024-03-08T21:22:32;7.20;61.20
4584;DHT22;2304;47.606;12.186;2024-03-08T21:27:34;7.20;61.90
4584;DHT22;2304;47.606;12.186;2024-03-08T21:32:36;7.00;63.50
4584;DHT22;2304;47.606;12.186;2024-03-08T21:37:40;7.00;63.60
4584;DHT22;2304;47.606;12.186;2024-03-08T21:42:42;6.90;64.10
4584;DHT22;2304;47.606;12.186;2024-03-08T21:47:44;6.80;62.90
4584;DHT22;2304;47.606;12.186;2024-03-08T21:52:48;6.70;64.30
4584;DHT22;2304;47.606;12.186;2024-03-08T21:57:50;6.60;64.00
4584;DHT22;2304;47.606;12.186;2024-03-08T22:02:52;6.60;64.40
4584;DHT22;2304;47.606;12.186;2024-03-08T22:07:56;6.60;64.70
4584;DHT22;2304;47.606;12.186;2024-03-08T22:12:58;6.60;64.40
4584;DHT22;2304;47.606;12.186;2024-03-08T22:17:59;6.70;63.60
4584;DHT22;2304;47.606;12.186;2024-03-08T22:23:03;6.60;63.40
4584;DHT22;2304;47.606;12.186;2024-03-08T22:28:06;6.40;63.60
4584;DHT22;2304;47.606;12.186;2024-03-08T22:33:08;6.20;63.30
4584;DHT22;2304;47.606;12.186;2024-03-08T22:38:11;6.20;63.80
4584;DHT22;2304;47.606;12.186;2024-03-08T22:43:13;6.10;63.60
4584;DHT22;2304;47.606;12.186;2024-03-08T22:48:17;6.00;63.20
4584;DHT22;2304;47.606;12.186;2024-03-08T22:53:20;6.00;63.40
4584;DHT22;2304;47.606;12.186;2024-03-08T22:58:22;5.80;64.70
4584;DHT22;2304;47.606;12.186;2024-03-08T23:03:24;5.80;64.90
4584;DHT22;2304;47.606;12.186;2024-03-08T23:08:27;5.80;65.00
4584;DHT22;2304;47.606;12.186;2024-03-08T23:13:30;5.90;64.50
4584;DHT22;2304;47.606;12.186;2024-03-08T23:18:34;5.70;62.80
4584;DHT22;2304;47.606;12.186;2024-03-08T23:23:37;5.70;63.60
4584;DHT22;2304;47.606;12.186;2024-03-08T23:28:40;5.60;64.10
4584;DHT22;2304;47.606;12.186;2024-03-08T23:33:42;5.60;64.20
4584;DHT22;2304;47.606;12.186;2024-03-08T23:38:48;5.50;63.60
4584;DHT22;2304;47.606;12.186;2024-03-08T23:43:51;5.60;63.20
4584;DHT22;2304;47.606;12.186;2024-03-08T23:48:53;5.50;63.40
4584;DHT22;2304;47.606;12.186;2024-03-08T23:53:57;5.40;63.30
4584;DHT22;2304;47.606;12.186;2024-03-08T23:58:59;5.40;63.60
